Palm Springs North, Florida
Current Conditions -  °F | °C
As of 1:53 AM on Friday 28 Nov 2014 (Local Time) from KOPF Reporting Station
Clear Clear  
Wind Chill: 57°   Ceiling: Unl
Heat Index: 57°   Visibility: 10mi
Dew Point: 42°   Wind: 14mph
Humidity: 57%   Direction: 340°NNW
Pressure: 30.18"   Gusts: NA
Location:  25.9357°N, 80.3817°W
Report Text: KOPF 280653Z AUTO 34012KT 10SM CLR 14/06 A3018 RMK AO2 SLP220 T01390056
Loading
Personal Weather Stations






























Interactive Weather Map New forecast layout! Learn more

10-Day Weather Forecast

Advertisements
Track Severe Weather on mobile